sensor_id;sensor_type;location;lat;lon;timestamp;P1;durP1;ratioP1;P2;durP2;ratioP2
22774;SDS011;11554;51.106;3.684;2023-08-21T00:00:00;8.10;;;2.40;;
22774;SDS011;11554;51.106;3.684;2023-08-21T00:05:00;6.80;;;2.30;;
22774;SDS011;11554;51.106;3.684;2023-08-21T00:10:00;6.80;;;2.30;;
22774;SDS011;11554;51.106;3.684;2023-08-21T00:15:00;5.00;;;1.90;;
22774;SDS011;11554;51.106;3.684;2023-08-21T00:20:00;5.00;;;1.90;;
22774;SDS011;11554;51.106;3.684;2023-08-21T00:25:00;5.70;;;2.00;;
22774;SDS011;11554;51.106;3.684;2023-08-21T00:30:00;5.70;;;2.00;;
22774;SDS011;11554;51.106;3.684;2023-08-21T00:35:00;4.90;;;1.80;;
22774;SDS011;11554;51.106;3.684;2023-08-21T00:40:00;4.90;;;1.80;;
22774;SDS011;11554;51.106;3.684;2023-08-21T00:45:00;7.80;;;1.80;;
22774;SDS011;11554;51.106;3.684;2023-08-21T00:50:00;7.80;;;1.80;;
22774;SDS011;11554;51.106;3.684;2023-08-21T00:55:00;5.70;;;1.90;;
22774;SDS011;11554;51.106;3.684;2023-08-21T01:00:00;5.70;;;1.90;;
22774;SDS011;11554;51.106;3.684;2023-08-21T01:05:00;6.20;;;2.30;;
22774;SDS011;11554;51.106;3.684;2023-08-21T01:10:04;6.20;;;2.30;;
22774;SDS011;11554;51.106;3.684;2023-08-21T01:15:02;5.50;;;1.70;;
22774;SDS011;11554;51.106;3.684;2023-08-21T01:20:00;5.50;;;1.70;;
22774;SDS011;11554;51.106;3.684;2023-08-21T01:25:00;6.40;;;1.90;;
22774;SDS011;11554;51.106;3.684;2023-08-21T01:30:00;6.40;;;1.90;;
22774;SDS011;11554;51.106;3.684;2023-08-21T01:35:01;5.90;;;1.60;;
22774;SDS011;11554;51.106;3.684;2023-08-21T01:40:00;5.90;;;1.60;;
22774;SDS011;11554;51.106;3.684;2023-08-21T01:45:00;6.40;;;2.00;;
22774;SDS011;11554;51.106;3.684;2023-08-21T01:50:00;6.40;;;2.00;;
22774;SDS011;11554;51.106;3.684;2023-08-21T01:55:00;6.50;;;1.70;;
22774;SDS011;11554;51.106;3.684;2023-08-21T02:00:00;6.50;;;1.70;;
22774;SDS011;11554;51.106;3.684;2023-08-21T02:05:00;6.20;;;1.90;;
22774;SDS011;11554;51.106;3.684;2023-08-21T02:10:00;6.20;;;1.90;;
22774;SDS011;11554;51.106;3.684;2023-08-21T02:15:00;5.00;;;1.60;;
22774;SDS011;11554;51.106;3.684;2023-08-21T02:20:00;5.00;;;1.60;;
22774;SDS011;11554;51.106;3.684;2023-08-21T02:25:00;3.30;;;1.40;;
22774;SDS011;11554;51.106;3.684;2023-08-21T02:30:00;3.30;;;1.40;;
22774;SDS011;11554;51.106;3.684;2023-08-21T02:35:00;6.10;;;1.70;;
22774;SDS011;11554;51.106;3.684;2023-08-21T02:40:00;6.10;;;1.70;;
22774;SDS011;11554;51.106;3.684;2023-08-21T02:45:00;6.30;;;2.10;;
22774;SDS011;11554;51.106;3.684;2023-08-21T02:50:00;6.30;;;2.10;;
22774;SDS011;11554;51.106;3.684;2023-08-21T02:55:00;7.50;;;2.20;;
22774;SDS011;11554;51.106;3.684;2023-08-21T03:00:00;7.50;;;2.20;;
22774;SDS011;11554;51.106;3.684;2023-08-21T03:05:00;6.30;;;2.10;;
22774;SDS011;11554;51.106;3.684;2023-08-21T03:10:00;6.30;;;2.10;;
22774;SDS011;11554;51.106;3.684;2023-08-21T03:15:00;6.50;;;2.10;;
22774;SDS011;11554;51.106;3.684;2023-08-21T03:20:00;6.50;;;2.10;;
22774;SDS011;11554;51.106;3.684;2023-08-21T03:25:00;5.50;;;2.00;;
22774;SDS011;11554;51.106;3.684;2023-08-21T03:30:00;5.50;;;2.00;;
22774;SDS011;11554;51.106;3.684;2023-08-21T03:35:00;6.80;;;2.10;;
22774;SDS011;11554;51.106;3.684;2023-08-21T03:40:02;6.80;;;2.10;;
22774;SDS011;11554;51.106;3.684;2023-08-21T03:45:01;8.20;;;2.50;;
22774;SDS011;11554;51.106;3.684;2023-08-21T03:50:00;8.20;;;2.50;;
22774;SDS011;11554;51.106;3.684;2023-08-21T03:55:00;7.80;;;2.70;;
22774;SDS011;11554;51.106;3.684;2023-08-21T04:00:00;7.80;;;2.70;;
22774;SDS011;11554;51.106;3.684;2023-08-21T04:05:00;8.40;;;3.30;;
22774;SDS011;11554;51.106;3.684;2023-08-21T04:10:00;8.40;;;3.30;;
22774;SDS011;11554;51.106;3.684;2023-08-21T04:15:00;8.00;;;3.60;;
22774;SDS011;11554;51.106;3.684;2023-08-21T04:20:00;8.00;;;3.60;;
22774;SDS011;11554;51.106;3.684;2023-08-21T04:25:00;5.00;;;2.50;;
22774;SDS011;11554;51.106;3.684;2023-08-21T04:30:00;5.00;;;2.50;;
22774;SDS011;11554;51.106;3.684;2023-08-21T04:35:00;8.20;;;2.90;;
22774;SDS011;11554;51.106;3.684;2023-08-21T04:40:00;8.20;;;2.90;;
22774;SDS011;11554;51.106;3.684;2023-08-21T04:45:00;6.40;;;3.40;;
22774;SDS011;11554;51.106;3.684;2023-08-21T04:50:00;6.40;;;3.40;;
22774;SDS011;11554;51.106;3.684;2023-08-21T04:55:00;12.50;;;4.10;;
22774;SDS011;11554;51.106;3.684;2023-08-21T05:00:00;12.50;;;4.10;;
22774;SDS011;11554;51.106;3.684;2023-08-21T05:05:00;9.70;;;4.10;;
22774;SDS011;11554;51.106;3.684;2023-08-21T05:10:00;9.70;;;4.10;;
22774;SDS011;11554;51.106;3.684;2023-08-21T05:15:00;7.10;;;3.70;;
22774;SDS011;11554;51.106;3.684;2023-08-21T05:20:00;7.10;;;3.70;;
22774;SDS011;11554;51.106;3.684;2023-08-21T05:25:00;17.50;;;5.50;;
22774;SDS011;11554;51.106;3.684;2023-08-21T05:30:00;17.50;;;5.50;;
22774;SDS011;11554;51.106;3.684;2023-08-21T05:35:00;13.00;;;4.70;;
22774;SDS011;11554;51.106;3.684;2023-08-21T05:40:00;13.00;;;4.70;;
22774;SDS011;11554;51.106;3.684;2023-08-21T05:45:00;14.50;;;6.20;;
22774;SDS011;11554;51.106;3.684;2023-08-21T05:50:00;14.50;;;6.20;;
22774;SDS011;11554;51.106;3.684;2023-08-21T05:55:00;16.50;;;6.40;;
22774;SDS011;11554;51.106;3.684;2023-08-21T06:00:00;16.50;;;6.40;;
22774;SDS011;11554;51.106;3.684;2023-08-21T06:05:00;25.60;;;8.70;;
22774;SDS011;11554;51.106;3.684;2023-08-21T06:10:00;25.60;;;8.70;;
22774;SDS011;11554;51.106;3.684;2023-08-21T06:15:00;16.10;;;7.70;;
22774;SDS011;11554;51.106;3.684;2023-08-21T06:20:00;16.10;;;7.70;;
22774;SDS011;11554;51.106;3.684;2023-08-21T06:25:00;17.70;;;8.50;;
22774;SDS011;11554;51.106;3.684;2023-08-21T06:30:00;17.70;;;8.50;;
22774;SDS011;11554;51.106;3.684;2023-08-21T06:35:00;13.70;;;7.60;;
22774;SDS011;11554;51.106;3.684;2023-08-21T06:40:00;13.70;;;7.60;;
22774;SDS011;11554;51.106;3.684;2023-08-21T06:45:00;18.50;;;7.60;;
22774;SDS011;11554;51.106;3.684;2023-08-21T06:50:00;18.50;;;7.60;;
22774;SDS011;11554;51.106;3.684;2023-08-21T06:55:00;14.80;;;7.00;;
22774;SDS011;11554;51.106;3.684;2023-08-21T07:00:00;14.80;;;7.00;;
22774;SDS011;11554;51.106;3.684;2023-08-21T07:05:00;13.70;;;6.90;;
22774;SDS011;11554;51.106;3.684;2023-08-21T07:10:00;13.70;;;6.90;;
22774;SDS011;11554;51.106;3.684;2023-08-21T07:15:00;15.60;;;7.40;;
22774;SDS011;11554;51.106;3.684;2023-08-21T07:20:00;15.60;;;7.40;;
22774;SDS011;11554;51.106;3.684;2023-08-21T07:25:00;15.60;;;7.60;;
22774;SDS011;11554;51.106;3.684;2023-08-21T07:30:00;15.60;;;7.60;;
22774;SDS011;11554;51.106;3.684;2023-08-21T07:35:00;14.90;;;7.00;;
22774;SDS011;11554;51.106;3.684;2023-08-21T07:40:00;14.90;;;7.00;;
22774;SDS011;11554;51.106;3.684;2023-08-21T07:45:00;15.10;;;7.00;;
22774;SDS011;11554;51.106;3.684;2023-08-21T07:50:00;15.10;;;7.00;;
22774;SDS011;11554;51.106;3.684;2023-08-21T07:55:00;16.90;;;7.40;;
22774;SDS011;11554;51.106;3.684;2023-08-21T08:00:00;16.90;;;7.40;;
22774;SDS011;11554;51.106;3.684;2023-08-21T08:05:00;12.70;;;7.50;;
22774;SDS011;11554;51.106;3.684;2023-08-21T08:10:00;12.70;;;7.50;;
22774;SDS011;11554;51.106;3.684;2023-08-21T08:15:00;13.80;;;7.90;;
22774;SDS011;11554;51.106;3.684;2023-08-21T08:20:00;13.80;;;7.90;;
22774;SDS011;11554;51.106;3.684;2023-08-21T08:25:00;14.40;;;8.00;;
22774;SDS011;11554;51.106;3.684;2023-08-21T08:30:00;14.40;;;8.00;;
22774;SDS011;11554;51.106;3.684;2023-08-21T08:35:00;14.00;;;6.80;;
22774;SDS011;11554;51.106;3.684;2023-08-21T08:40:00;14.00;;;6.80;;
22774;SDS011;11554;51.106;3.684;2023-08-21T08:45:02;11.70;;;5.30;;
22774;SDS011;11554;51.106;3.684;2023-08-21T08:50:01;11.70;;;5.30;;
22774;SDS011;11554;51.106;3.684;2023-08-21T08:55:00;13.30;;;5.60;;
22774;SDS011;11554;51.106;3.684;2023-08-21T09:00:00;13.30;;;5.60;;
22774;SDS011;11554;51.106;3.684;2023-08-21T09:05:00;15.40;;;7.10;;
22774;SDS011;11554;51.106;3.684;2023-08-21T09:10:00;15.40;;;7.10;;
22774;SDS011;11554;51.106;3.684;2023-08-21T09:15:06;11.90;;;6.10;;
22774;SDS011;11554;51.106;3.684;2023-08-21T09:20:03;11.90;;;6.10;;
22774;SDS011;11554;51.106;3.684;2023-08-21T09:25:02;13.20;;;6.40;;
22774;SDS011;11554;51.106;3.684;2023-08-21T09:30:00;13.20;;;6.40;;
22774;SDS011;11554;51.106;3.684;2023-08-21T09:35:00;12.00;;;5.50;;
22774;SDS011;11554;51.106;3.684;2023-08-21T09:40:00;12.00;;;5.50;;
22774;SDS011;11554;51.106;3.684;2023-08-21T09:45:00;14.50;;;6.10;;
22774;SDS011;11554;51.106;3.684;2023-08-21T09:50:00;14.50;;;6.10;;
22774;SDS011;11554;51.106;3.684;2023-08-21T09:55:00;12.80;;;5.20;;
22774;SDS011;11554;51.106;3.684;2023-08-21T10:00:02;12.80;;;5.20;;
22774;SDS011;11554;51.106;3.684;2023-08-21T10:05:00;8.70;;;3.50;;
22774;SDS011;11554;51.106;3.684;2023-08-21T10:10:00;8.70;;;3.50;;
22774;SDS011;11554;51.106;3.684;2023-08-21T10:15:01;7.90;;;2.50;;
22774;SDS011;11554;51.106;3.684;2023-08-21T10:20:02;7.90;;;2.50;;
22774;SDS011;11554;51.106;3.684;2023-08-21T10:25:00;7.40;;;2.90;;
22774;SDS011;11554;51.106;3.684;2023-08-21T10:30:12;7.40;;;2.90;;
22774;SDS011;11554;51.106;3.684;2023-08-21T10:35:00;7.50;;;3.00;;
22774;SDS011;11554;51.106;3.684;2023-08-21T10:40:00;7.50;;;3.00;;
22774;SDS011;11554;51.106;3.684;2023-08-21T10:45:10;7.60;;;3.20;;
22774;SDS011;11554;51.106;3.684;2023-08-21T10:50:02;7.60;;;3.20;;
22774;SDS011;11554;51.106;3.684;2023-08-21T10:55:01;9.20;;;3.50;;
22774;SDS011;11554;51.106;3.684;2023-08-21T11:00:01;9.20;;;3.50;;
22774;SDS011;11554;51.106;3.684;2023-08-21T11:05:00;6.60;;;2.40;;
22774;SDS011;11554;51.106;3.684;2023-08-21T11:10:00;6.60;;;2.40;;
22774;SDS011;11554;51.106;3.684;2023-08-21T11:15:00;9.90;;;4.10;;
22774;SDS011;11554;51.106;3.684;2023-08-21T11:20:01;9.90;;;4.10;;
22774;SDS011;11554;51.106;3.684;2023-08-21T11:25:00;9.30;;;3.10;;
22774;SDS011;11554;51.106;3.684;2023-08-21T11:30:00;9.30;;;3.10;;
22774;SDS011;11554;51.106;3.684;2023-08-21T11:35:00;7.40;;;2.90;;
22774;SDS011;11554;51.106;3.684;2023-08-21T11:40:07;7.40;;;2.90;;
22774;SDS011;11554;51.106;3.684;2023-08-21T11:45:01;8.60;;;3.10;;
22774;SDS011;11554;51.106;3.684;2023-08-21T11:50:05;8.60;;;3.10;;
22774;SDS011;11554;51.106;3.684;2023-08-21T11:55:00;8.90;;;2.60;;
22774;SDS011;11554;51.106;3.684;2023-08-21T12:00:00;8.90;;;2.60;;
22774;SDS011;11554;51.106;3.684;2023-08-21T12:05:02;7.60;;;3.10;;
22774;SDS011;11554;51.106;3.684;2023-08-21T12:10:00;7.60;;;3.10;;
22774;SDS011;11554;51.106;3.684;2023-08-21T12:15:00;8.00;;;2.00;;
22774;SDS011;11554;51.106;3.684;2023-08-21T12:20:00;8.00;;;2.00;;
22774;SDS011;11554;51.106;3.684;2023-08-21T12:25:00;7.00;;;2.50;;
22774;SDS011;11554;51.106;3.684;2023-08-21T12:30:00;7.00;;;2.50;;
22774;SDS011;11554;51.106;3.684;2023-08-21T12:35:00;5.30;;;2.00;;
22774;SDS011;11554;51.106;3.684;2023-08-21T12:40:00;5.30;;;2.00;;
22774;SDS011;11554;51.106;3.684;2023-08-21T12:45:00;7.70;;;1.90;;
22774;SDS011;11554;51.106;3.684;2023-08-21T12:50:00;7.70;;;1.90;;
22774;SDS011;11554;51.106;3.684;2023-08-21T12:55:00;5.30;;;1.80;;
22774;SDS011;11554;51.106;3.684;2023-08-21T13:00:00;5.30;;;1.80;;
22774;SDS011;11554;51.106;3.684;2023-08-21T13:05:00;5.50;;;1.70;;
22774;SDS011;11554;51.106;3.684;2023-08-21T13:10:00;5.50;;;1.70;;
22774;SDS011;11554;51.106;3.684;2023-08-21T13:15:00;5.20;;;1.40;;
22774;SDS011;11554;51.106;3.684;2023-08-21T13:20:00;5.20;;;1.40;;
22774;SDS011;11554;51.106;3.684;2023-08-21T13:25:00;5.30;;;1.50;;
22774;SDS011;11554;51.106;3.684;2023-08-21T13:30:00;5.30;;;1.50;;
22774;SDS011;11554;51.106;3.684;2023-08-21T13:35:00;4.20;;;1.40;;
22774;SDS011;11554;51.106;3.684;2023-08-21T13:40:00;4.20;;;1.40;;
22774;SDS011;11554;51.106;3.684;2023-08-21T13:45:00;5.50;;;1.70;;
22774;SDS011;11554;51.106;3.684;2023-08-21T13:50:00;5.50;;;1.70;;
22774;SDS011;11554;51.106;3.684;2023-08-21T13:55:00;7.20;;;1.70;;
22774;SDS011;11554;51.106;3.684;2023-08-21T14:00:01;7.20;;;1.70;;
22774;SDS011;11554;51.106;3.684;2023-08-21T14:05:00;3.70;;;1.10;;
22774;SDS011;11554;51.106;3.684;2023-08-21T14:10:00;3.70;;;1.10;;
22774;SDS011;11554;51.106;3.684;2023-08-21T14:15:00;3.60;;;1.10;;
22774;SDS011;11554;51.106;3.684;2023-08-21T14:20:00;3.60;;;1.10;;
22774;SDS011;11554;51.106;3.684;2023-08-21T14:25:00;4.70;;;1.40;;
22774;SDS011;11554;51.106;3.684;2023-08-21T14:30:00;4.70;;;1.40;;
22774;SDS011;11554;51.106;3.684;2023-08-21T14:35:00;4.10;;;1.30;;
22774;SDS011;11554;51.106;3.684;2023-08-21T14:40:00;4.10;;;1.30;;
22774;SDS011;11554;51.106;3.684;2023-08-21T14:45:00;4.00;;;1.30;;
22774;SDS011;11554;51.106;3.684;2023-08-21T14:50:00;4.00;;;1.30;;
22774;SDS011;11554;51.106;3.684;2023-08-21T14:55:00;7.30;;;3.40;;
22774;SDS011;11554;51.106;3.684;2023-08-21T15:00:00;7.30;;;3.40;;
22774;SDS011;11554;51.106;3.684;2023-08-21T15:05:01;9.20;;;2.60;;
22774;SDS011;11554;51.106;3.684;2023-08-21T15:10:00;9.20;;;2.60;;
22774;SDS011;11554;51.106;3.684;2023-08-21T15:15:00;7.10;;;2.60;;
22774;SDS011;11554;51.106;3.684;2023-08-21T15:20:00;7.10;;;2.60;;
22774;SDS011;11554;51.106;3.684;2023-08-21T15:25:00;10.70;;;4.20;;
22774;SDS011;11554;51.106;3.684;2023-08-21T15:30:00;10.70;;;4.20;;
22774;SDS011;11554;51.106;3.684;2023-08-21T15:35:00;7.50;;;3.00;;
22774;SDS011;11554;51.106;3.684;2023-08-21T15:40:00;7.50;;;3.00;;
22774;SDS011;11554;51.106;3.684;2023-08-21T15:45:00;10.30;;;3.60;;
22774;SDS011;11554;51.106;3.684;2023-08-21T15:50:00;10.30;;;3.60;;
22774;SDS011;11554;51.106;3.684;2023-08-21T15:55:00;9.10;;;3.90;;
22774;SDS011;11554;51.106;3.684;2023-08-21T16:00:00;9.10;;;3.90;;
22774;SDS011;11554;51.106;3.684;2023-08-21T16:05:00;8.60;;;3.40;;
22774;SDS011;11554;51.106;3.684;2023-08-21T16:10:00;8.60;;;3.40;;
22774;SDS011;11554;51.106;3.684;2023-08-21T16:15:00;8.70;;;3.50;;
22774;SDS011;11554;51.106;3.684;2023-08-21T16:20:00;8.70;;;3.50;;
22774;SDS011;11554;51.106;3.684;2023-08-21T16:25:00;8.70;;;3.20;;
22774;SDS011;11554;51.106;3.684;2023-08-21T16:30:00;8.70;;;3.20;;
22774;SDS011;11554;51.106;3.684;2023-08-21T16:35:00;8.50;;;2.90;;
22774;SDS011;11554;51.106;3.684;2023-08-21T16:40:00;8.50;;;2.90;;
22774;SDS011;11554;51.106;3.684;2023-08-21T16:45:00;9.00;;;4.20;;
22774;SDS011;11554;51.106;3.684;2023-08-21T16:50:00;9.00;;;4.20;;
22774;SDS011;11554;51.106;3.684;2023-08-21T16:55:00;10.10;;;3.90;;
22774;SDS011;11554;51.106;3.684;2023-08-21T17:00:00;10.10;;;3.90;;
22774;SDS011;11554;51.106;3.684;2023-08-21T17:05:00;8.70;;;4.30;;
22774;SDS011;11554;51.106;3.684;2023-08-21T17:10:00;8.70;;;4.30;;
22774;SDS011;11554;51.106;3.684;2023-08-21T17:15:00;11.40;;;4.80;;
22774;SDS011;11554;51.106;3.684;2023-08-21T17:20:00;11.40;;;4.80;;
22774;SDS011;11554;51.106;3.684;2023-08-21T17:25:00;9.60;;;5.40;;
22774;SDS011;11554;51.106;3.684;2023-08-21T17:30:00;9.60;;;5.40;;
22774;SDS011;11554;51.106;3.684;2023-08-21T17:35:00;9.80;;;5.20;;
22774;SDS011;11554;51.106;3.684;2023-08-21T17:40:00;9.80;;;5.20;;
22774;SDS011;11554;51.106;3.684;2023-08-21T17:45:00;11.20;;;5.20;;
22774;SDS011;11554;51.106;3.684;2023-08-21T17:50:00;11.20;;;5.20;;
22774;SDS011;11554;51.106;3.684;2023-08-21T17:55:00;8.50;;;4.70;;
22774;SDS011;11554;51.106;3.684;2023-08-21T18:00:00;8.50;;;4.70;;
22774;SDS011;11554;51.106;3.684;2023-08-21T18:05:00;13.60;;;5.10;;
22774;SDS011;11554;51.106;3.684;2023-08-21T18:10:00;13.60;;;5.10;;
22774;SDS011;11554;51.106;3.684;2023-08-21T18:15:01;15.80;;;6.00;;
22774;SDS011;11554;51.106;3.684;2023-08-21T18:20:00;15.80;;;6.00;;
22774;SDS011;11554;51.106;3.684;2023-08-21T18:25:00;12.20;;;6.00;;
22774;SDS011;11554;51.106;3.684;2023-08-21T18:30:00;12.20;;;6.00;;
22774;SDS011;11554;51.106;3.684;2023-08-21T18:35:00;12.80;;;6.90;;
22774;SDS011;11554;51.106;3.684;2023-08-21T18:40:00;12.80;;;6.90;;
22774;SDS011;11554;51.106;3.684;2023-08-21T18:45:00;13.50;;;6.90;;
22774;SDS011;11554;51.106;3.684;2023-08-21T18:50:00;13.50;;;6.90;;
22774;SDS011;11554;51.106;3.684;2023-08-21T18:55:00;13.80;;;6.00;;
22774;SDS011;11554;51.106;3.684;2023-08-21T19:00:00;13.80;;;6.00;;
22774;SDS011;11554;51.106;3.684;2023-08-21T19:05:00;9.10;;;6.10;;
22774;SDS011;11554;51.106;3.684;2023-08-21T19:10:00;9.10;;;6.10;;
22774;SDS011;11554;51.106;3.684;2023-08-21T19:15:01;15.10;;;7.40;;
22774;SDS011;11554;51.106;3.684;2023-08-21T19:20:00;15.10;;;7.40;;
22774;SDS011;11554;51.106;3.684;2023-08-21T19:25:00;14.30;;;7.80;;
22774;SDS011;11554;51.106;3.684;2023-08-21T19:30:00;14.30;;;7.80;;
22774;SDS011;11554;51.106;3.684;2023-08-21T19:35:00;12.90;;;6.70;;
22774;SDS011;11554;51.106;3.684;2023-08-21T19:40:00;12.90;;;6.70;;
22774;SDS011;11554;51.106;3.684;2023-08-21T19:45:00;12.90;;;7.10;;
22774;SDS011;11554;51.106;3.684;2023-08-21T19:50:01;12.90;;;7.10;;
22774;SDS011;11554;51.106;3.684;2023-08-21T19:55:00;13.40;;;7.60;;
22774;SDS011;11554;51.106;3.684;2023-08-21T20:00:00;13.40;;;7.60;;
22774;SDS011;11554;51.106;3.684;2023-08-21T20:05:00;15.60;;;8.10;;
22774;SDS011;11554;51.106;3.684;2023-08-21T20:10:00;15.60;;;8.10;;
22774;SDS011;11554;51.106;3.684;2023-08-21T20:15:02;18.60;;;8.20;;
22774;SDS011;11554;51.106;3.684;2023-08-21T20:20:00;18.60;;;8.20;;
22774;SDS011;11554;51.106;3.684;2023-08-21T20:25:00;13.90;;;7.60;;
22774;SDS011;11554;51.106;3.684;2023-08-21T20:30:00;13.90;;;7.60;;
22774;SDS011;11554;51.106;3.684;2023-08-21T20:35:00;11.10;;;6.50;;
22774;SDS011;11554;51.106;3.684;2023-08-21T20:40:00;11.10;;;6.50;;
22774;SDS011;11554;51.106;3.684;2023-08-21T20:45:00;11.80;;;7.60;;
22774;SDS011;11554;51.106;3.684;2023-08-21T20:50:00;11.80;;;7.60;;
22774;SDS011;11554;51.106;3.684;2023-08-21T20:55:00;12.90;;;8.00;;
22774;SDS011;11554;51.106;3.684;2023-08-21T21:00:00;12.90;;;8.00;;
22774;SDS011;11554;51.106;3.684;2023-08-21T21:05:00;11.80;;;7.10;;
22774;SDS011;11554;51.106;3.684;2023-08-21T21:10:00;11.80;;;7.10;;
22774;SDS011;11554;51.106;3.684;2023-08-21T21:15:00;12.10;;;6.60;;
22774;SDS011;11554;51.106;3.684;2023-08-21T21:20:00;12.10;;;6.60;;
22774;SDS011;11554;51.106;3.684;2023-08-21T21:25:00;11.60;;;7.80;;
22774;SDS011;11554;51.106;3.684;2023-08-21T21:30:00;11.60;;;7.80;;
22774;SDS011;11554;51.106;3.684;2023-08-21T21:35:00;13.90;;;8.80;;
22774;SDS011;11554;51.106;3.684;2023-08-21T21:40:00;13.90;;;8.80;;
22774;SDS011;11554;51.106;3.684;2023-08-21T21:45:00;16.60;;;9.70;;
22774;SDS011;11554;51.106;3.684;2023-08-21T21:50:00;16.60;;;9.70;;
22774;SDS011;11554;51.106;3.684;2023-08-21T21:55:00;12.30;;;7.50;;
22774;SDS011;11554;51.106;3.684;2023-08-21T22:00:00;12.30;;;7.50;;
22774;SDS011;11554;51.106;3.684;2023-08-21T22:05:00;15.90;;;9.90;;
22774;SDS011;11554;51.106;3.684;2023-08-21T22:10:00;15.90;;;9.90;;
22774;SDS011;11554;51.106;3.684;2023-08-21T22:15:00;17.10;;;10.70;;
22774;SDS011;11554;51.106;3.684;2023-08-21T22:20:00;17.10;;;10.70;;
22774;SDS011;11554;51.106;3.684;2023-08-21T22:25:00;11.40;;;6.80;;
22774;SDS011;11554;51.106;3.684;2023-08-21T22:30:00;11.40;;;6.80;;
22774;SDS011;11554;51.106;3.684;2023-08-21T22:35:00;13.70;;;8.10;;
22774;SDS011;11554;51.106;3.684;2023-08-21T22:40:00;13.70;;;8.10;;
22774;SDS011;11554;51.106;3.684;2023-08-21T22:45:00;10.50;;;6.90;;
22774;SDS011;11554;51.106;3.684;2023-08-21T22:50:00;10.50;;;6.90;;
22774;SDS011;11554;51.106;3.684;2023-08-21T22:55:00;15.80;;;10.30;;
22774;SDS011;11554;51.106;3.684;2023-08-21T23:00:00;15.80;;;10.30;;
22774;SDS011;11554;51.106;3.684;2023-08-21T23:05:00;12.90;;;8.70;;
22774;SDS011;11554;51.106;3.684;2023-08-21T23:10:00;12.90;;;8.70;;
22774;SDS011;11554;51.106;3.684;2023-08-21T23:15:00;12.40;;;9.10;;
22774;SDS011;11554;51.106;3.684;2023-08-21T23:20:00;12.40;;;9.10;;
22774;SDS011;11554;51.106;3.684;2023-08-21T23:25:00;12.60;;;8.50;;
22774;SDS011;11554;51.106;3.684;2023-08-21T23:30:00;12.60;;;8.50;;
22774;SDS011;11554;51.106;3.684;2023-08-21T23:35:00;13.90;;;8.90;;
22774;SDS011;11554;51.106;3.684;2023-08-21T23:40:00;13.90;;;8.90;;
22774;SDS011;11554;51.106;3.684;2023-08-21T23:45:00;13.80;;;8.70;;
22774;SDS011;11554;51.106;3.684;2023-08-21T23:50:00;13.80;;;8.70;;
22774;SDS011;11554;51.106;3.684;2023-08-21T23:55:01;15.50;;;10.40;;
